createdAt,value
2019-04-05T00:02:03.723Z,25.90
2019-04-05T00:04:31.011Z,20.25
2019-04-05T00:06:58.354Z,20.60
2019-04-05T00:09:25.604Z,21.50
2019-04-05T00:11:52.886Z,17.10
2019-04-05T00:14:20.186Z,16.55
2019-04-05T00:16:47.413Z,23.40
2019-04-05T00:19:14.696Z,23.12
2019-04-05T00:21:42.483Z,21.20
2019-04-05T00:24:09.720Z,20.17
2019-04-05T00:26:36.999Z,22.52
2019-04-05T00:29:04.195Z,23.62
2019-04-05T00:31:31.842Z,25.10
2019-04-05T00:33:59.103Z,18.80
2019-04-05T00:36:26.320Z,22.55
2019-04-05T00:38:53.566Z,19.52
2019-04-05T00:41:20.835Z,19.07
2019-04-05T00:43:48.037Z,19.20
2019-04-05T00:46:15.320Z,16.93
2019-04-05T00:48:42.586Z,20.40
2019-04-05T00:51:09.822Z,22.07
2019-04-05T00:53:37.044Z,17.00
2019-04-05T00:56:04.321Z,18.77
2019-04-05T00:58:31.542Z,21.60
2019-04-05T01:00:58.769Z,21.25
2019-04-05T01:03:26.039Z,20.02
2019-04-05T01:05:53.272Z,18.87
2019-04-05T01:08:20.806Z,15.58
2019-04-05T01:10:48.361Z,20.50
2019-04-05T01:13:15.572Z,20.88
2019-04-05T01:15:43.157Z,20.25
2019-04-05T01:18:10.542Z,18.45
2019-04-05T01:20:38.758Z,19.87
2019-04-05T01:23:07.488Z,20.30
2019-04-05T01:25:34.763Z,24.25
2019-04-05T01:28:01.987Z,26.62
2019-04-05T01:30:29.266Z,22.32
2019-04-05T01:32:56.537Z,21.57
2019-04-05T01:35:24.078Z,21.05
2019-04-05T01:37:51.296Z,24.12
2019-04-05T01:40:19.914Z,18.40
2019-04-05T01:42:47.325Z,21.62
2019-04-05T01:45:14.538Z,24.18
2019-04-05T01:47:41.809Z,24.40
2019-04-05T01:50:09.068Z,24.55
2019-04-05T01:52:36.285Z,19.87
2019-04-05T01:55:06.664Z,20.48
2019-04-05T01:57:33.864Z,18.10
2019-04-05T02:00:01.429Z,26.10
2019-04-05T02:02:30.130Z,21.82
2019-04-05T02:04:57.345Z,27.42
2019-04-05T02:07:24.565Z,21.45
2019-04-05T02:09:51.825Z,24.12
2019-04-05T02:12:20.567Z,23.85
2019-04-05T02:14:47.795Z,24.63
2019-04-05T02:17:15.065Z,22.98
2019-04-05T02:19:42.286Z,21.70
2019-04-05T02:22:09.554Z,19.85
2019-04-05T02:24:37.332Z,19.25
2019-04-05T02:27:04.544Z,23.38
2019-04-05T02:29:31.774Z,28.83
2019-04-05T02:31:59.060Z,22.87
2019-04-05T02:34:26.272Z,24.23
2019-04-05T02:36:53.501Z,23.10
2019-04-05T02:39:20.773Z,23.90
2019-04-05T02:41:48.007Z,24.67
2019-04-05T02:44:15.224Z,23.80
2019-04-05T02:46:42.531Z,22.45
2019-04-05T02:49:09.724Z,21.73
2019-04-05T02:51:36.929Z,26.68
2019-04-05T02:54:05.278Z,24.72
2019-04-05T02:56:32.477Z,27.40
2019-04-05T02:58:59.683Z,30.32
2019-04-05T03:01:27.047Z,23.38
2019-04-05T03:03:54.698Z,20.92
2019-04-05T03:06:22.358Z,26.57
2019-04-05T03:08:49.643Z,26.37
2019-04-05T03:11:17.166Z,26.90
2019-04-05T03:13:46.575Z,24.20
2019-04-05T03:16:17.739Z,20.43
2019-04-05T03:21:11.886Z,23.57
2019-04-05T03:23:39.769Z,37.93
2019-04-05T03:26:07.855Z,21.25
2019-04-05T03:28:35.057Z,38.45
2019-04-05T03:31:02.394Z,88.55
2019-04-05T03:33:29.591Z,90.35
2019-04-05T03:35:56.814Z,39.18
2019-04-05T03:38:24.086Z,26.10
2019-04-05T03:40:51.327Z,30.35
2019-04-05T03:43:18.549Z,32.73
2019-04-05T03:45:45.846Z,31.25
2019-04-05T03:48:13.058Z,30.68
2019-04-05T03:50:40.288Z,27.73
2019-04-05T03:53:07.620Z,33.35
2019-04-05T03:55:35.344Z,34.27
2019-04-05T03:58:02.615Z,49.90
2019-04-05T04:00:31.365Z,38.05
2019-04-05T04:02:58.586Z,33.55
2019-04-05T04:05:25.803Z,39.58
2019-04-05T04:07:53.061Z,40.00
2019-04-05T04:10:20.259Z,35.65
2019-04-05T04:12:47.491Z,23.90
2019-04-05T04:15:15.030Z,26.57
2019-04-05T04:17:43.019Z,26.65
2019-04-05T04:20:28.829Z,31.00
2019-04-05T04:22:56.033Z,25.65
2019-04-05T04:25:23.245Z,28.73
2019-04-05T04:27:51.394Z,25.45
2019-04-05T04:30:18.683Z,25.25
2019-04-05T04:32:45.926Z,38.48
2019-04-05T04:35:13.191Z,52.95
2019-04-05T04:37:40.401Z,79.87
2019-04-05T04:40:07.630Z,43.38
2019-04-05T04:42:34.889Z,30.65
2019-04-05T04:45:12.087Z,32.50
2019-04-05T04:47:31.497Z,33.38
2019-04-05T04:49:58.780Z,29.10
2019-04-05T04:52:26.601Z,30.12
2019-04-05T04:54:53.826Z,27.87
2019-04-05T04:57:21.089Z,24.57
2019-04-05T04:59:48.301Z,24.85
2019-04-05T05:02:15.572Z,31.93
2019-04-05T05:04:42.825Z,28.90
2019-04-05T05:07:10.039Z,28.47
2019-04-05T05:09:37.259Z,27.58
2019-04-05T05:12:04.533Z,22.93
2019-04-05T05:14:31.725Z,24.35
2019-04-05T05:16:58.953Z,26.23
2019-04-05T05:19:26.214Z,31.80
2019-04-05T05:21:53.433Z,25.90
2019-04-05T05:24:20.722Z,26.25
2019-04-05T05:26:48.444Z,30.27
2019-04-05T05:29:17.187Z,21.85
2019-04-05T05:31:45.143Z,31.62
2019-04-05T05:34:12.857Z,31.07
2019-04-05T05:36:40.389Z,28.15
2019-04-05T05:39:07.602Z,28.42
2019-04-05T05:41:34.887Z,28.65
2019-04-05T05:44:02.119Z,28.35
2019-04-05T05:46:29.357Z,22.40
2019-04-05T05:48:56.615Z,25.90
2019-04-05T05:51:23.839Z,30.10
2019-04-05T05:53:52.060Z,28.92
2019-04-05T05:56:19.348Z,27.48
2019-04-05T05:58:46.550Z,22.27
2019-04-05T06:01:13.763Z,34.95
2019-04-05T06:03:41.032Z,27.67
2019-04-05T06:06:08.304Z,27.07
2019-04-05T06:08:35.548Z,30.12
2019-04-05T06:11:02.936Z,27.22
2019-04-05T06:13:30.268Z,27.40
2019-04-05T06:15:57.577Z,30.72
2019-04-05T06:18:24.846Z,28.75
2019-04-05T06:20:52.070Z,29.80
2019-04-05T06:23:32.764Z,28.12
2019-04-05T06:25:49.412Z,27.17
2019-04-05T06:28:16.641Z,30.72
2019-04-05T06:30:44.169Z,28.57
2019-04-05T06:33:11.449Z,38.63
2019-04-05T06:35:38.673Z,38.40
2019-04-05T06:38:05.942Z,32.30
2019-04-05T06:40:40.544Z,35.25
2019-04-05T06:43:02.293Z,25.45
2019-04-05T06:45:29.640Z,34.18
2019-04-05T06:47:56.924Z,33.85
2019-04-05T06:50:24.139Z,29.30
2019-04-05T06:52:52.876Z,27.60
2019-04-05T06:55:20.145Z,32.20
2019-04-05T06:57:47.362Z,33.55
2019-04-05T07:00:15.023Z,38.78
2019-04-05T07:02:42.460Z,28.05
2019-04-05T07:05:10.004Z,33.20
2019-04-05T07:07:37.237Z,27.93
2019-04-05T07:10:04.559Z,27.00
2019-04-05T07:12:31.889Z,34.85
2019-04-05T07:14:59.153Z,30.48
2019-04-05T07:17:27.051Z,28.83
2019-04-05T07:19:54.260Z,36.30
2019-04-05T07:22:33.497Z,38.88
2019-04-05T07:24:50.570Z,39.92
2019-04-05T07:27:17.783Z,42.43
2019-04-05T07:29:45.499Z,33.13
2019-04-05T07:32:13.090Z,37.25
2019-04-05T07:34:40.315Z,29.10
2019-04-05T07:37:07.522Z,34.48
2019-04-05T07:39:34.829Z,45.70
2019-04-05T07:42:02.102Z,42.48
2019-04-05T07:44:29.324Z,33.80
2019-04-05T07:46:56.604Z,47.40
2019-04-05T07:49:23.818Z,31.17
2019-04-05T07:51:51.098Z,30.02
2019-04-05T07:54:18.469Z,34.98
2019-04-05T07:56:46.342Z,29.82
2019-04-05T07:59:13.726Z,43.17
2019-04-05T08:01:41.029Z,32.33
2019-04-05T08:04:08.250Z,38.73
2019-04-05T08:06:35.456Z,30.43
2019-04-05T08:09:05.263Z,36.30
2019-04-05T08:11:32.581Z,29.37
2019-04-05T08:13:59.867Z,43.45
2019-04-05T08:16:27.137Z,31.12
2019-04-05T08:18:58.062Z,34.55
2019-04-05T08:21:23.369Z,30.62
2019-04-05T08:23:50.611Z,37.55
2019-04-05T08:26:17.844Z,35.20
2019-04-05T08:28:45.063Z,33.40
2019-04-05T08:31:14.540Z,32.60
2019-04-05T08:33:42.030Z,45.10
2019-04-05T08:36:09.260Z,46.20
2019-04-05T08:38:39.516Z,37.93
2019-04-05T08:41:05.543Z,34.35
2019-04-05T08:43:32.772Z,29.70
2019-04-05T08:46:00.118Z,36.28
2019-04-05T08:48:28.341Z,35.70
2019-04-05T08:50:55.606Z,40.60
2019-04-05T08:53:22.868Z,29.60
2019-04-05T08:55:50.090Z,39.00
2019-04-05T08:58:17.285Z,32.85
2019-04-05T09:00:44.577Z,38.20
2019-04-05T09:03:12.156Z,31.57
2019-04-05T09:05:40.402Z,33.85
2019-04-05T09:08:07.666Z,35.08
2019-04-05T09:10:34.865Z,36.23
2019-04-05T09:13:02.077Z,30.02
2019-04-05T09:15:29.336Z,31.65
2019-04-05T09:17:56.610Z,35.50
2019-04-05T09:20:23.817Z,34.15
2019-04-05T09:22:51.084Z,31.12
2019-04-05T09:25:19.808Z,32.93
2019-04-05T09:27:47.715Z,32.25
2019-04-05T09:30:15.001Z,33.45
2019-04-05T09:32:42.228Z,37.05
2019-04-05T09:35:10.000Z,31.05
2019-04-05T09:37:37.282Z,32.50
2019-04-05T09:40:06.203Z,33.75
2019-04-05T09:42:33.773Z,35.92
2019-04-05T09:45:02.965Z,32.65
2019-04-05T09:47:30.181Z,39.45
2019-04-05T09:49:59.249Z,55.12
2019-04-05T09:52:26.512Z,35.78
2019-04-05T09:54:53.731Z,50.98
2019-04-05T09:57:20.954Z,37.13
2019-04-05T09:59:48.542Z,27.82
2019-04-05T10:02:16.083Z,38.63
2019-04-05T10:04:43.299Z,39.05
2019-04-05T10:07:10.586Z,31.82
2019-04-05T10:09:37.802Z,36.85
2019-04-05T10:12:05.048Z,30.92
2019-04-05T10:14:32.576Z,26.42
2019-04-05T10:16:59.794Z,32.70
2019-04-05T10:19:27.638Z,27.73
2019-04-05T10:21:55.405Z,29.07
2019-04-05T10:24:22.592Z,33.63
2019-04-05T10:26:49.996Z,34.13
2019-04-05T10:29:17.251Z,27.25
2019-04-05T10:31:44.777Z,29.60
2019-04-05T10:34:11.993Z,29.67
2019-04-05T10:36:40.853Z,34.10
2019-04-05T10:39:09.380Z,31.55
2019-04-05T10:41:36.594Z,40.85
2019-04-05T10:44:05.199Z,31.80
2019-04-05T10:46:32.415Z,31.73
2019-04-05T10:49:00.046Z,27.98
2019-04-05T10:51:27.341Z,30.92
2019-04-05T10:53:54.667Z,29.72
2019-04-05T10:56:22.180Z,45.33
2019-04-05T10:58:49.470Z,27.22
2019-04-05T11:01:17.000Z,27.07
2019-04-05T11:03:44.222Z,31.07
2019-04-05T11:06:11.492Z,26.33
2019-04-05T11:08:38.718Z,37.38
2019-04-05T11:11:05.930Z,31.02
2019-04-05T11:13:33.226Z,29.52
2019-04-05T11:16:03.855Z,27.48
2019-04-05T11:18:30.637Z,31.70
2019-04-05T11:20:58.525Z,26.62
2019-04-05T11:23:26.053Z,28.85
2019-04-05T11:25:53.338Z,26.68
2019-04-05T11:28:20.609Z,26.37
2019-04-05T11:30:47.825Z,35.28
2019-04-05T11:33:15.047Z,33.67
2019-04-05T11:35:42.308Z,25.00
2019-04-05T11:38:10.126Z,29.57
2019-04-05T11:40:37.376Z,28.90
2019-04-05T11:43:04.633Z,25.17
2019-04-05T11:45:32.130Z,29.07
2019-04-05T11:47:59.658Z,26.50
2019-04-05T11:50:34.591Z,30.43
2019-04-05T11:52:55.945Z,25.20
2019-04-05T11:55:23.185Z,26.40
2019-04-05T11:57:50.535Z,23.73
2019-04-05T12:00:22.320Z,23.75
2019-04-05T12:02:51.408Z,24.85
2019-04-05T12:05:20.375Z,26.45
2019-04-05T12:07:47.742Z,23.22
2019-04-05T12:10:18.580Z,25.70
2019-04-05T12:12:44.042Z,22.05
2019-04-05T12:15:11.369Z,22.48
2019-04-05T12:17:38.669Z,23.35
2019-04-05T12:20:06.282Z,22.42
2019-04-05T12:22:34.909Z,27.62
2019-04-05T12:25:03.687Z,31.07
2019-04-05T12:27:31.011Z,34.45
2019-04-05T12:29:58.290Z,27.70
2019-04-05T12:32:33.524Z,23.07
2019-04-05T12:37:23.353Z,21.05
2019-04-05T12:39:50.866Z,23.20
2019-04-05T12:42:19.405Z,22.58
2019-04-05T12:44:46.634Z,23.47
2019-04-05T12:47:15.719Z,25.48
2019-04-05T12:49:43.393Z,19.40
2019-04-05T12:52:21.837Z,22.15
2019-04-05T12:54:41.137Z,23.02
2019-04-05T12:57:08.364Z,20.85
2019-04-05T12:59:37.360Z,20.08
2019-04-05T13:02:04.692Z,30.70
2019-04-05T13:04:31.914Z,28.02
2019-04-05T13:06:59.127Z,26.50
2019-04-05T13:09:26.396Z,25.57
2019-04-05T13:11:56.497Z,26.90
2019-04-05T13:14:26.054Z,24.50
2019-04-05T13:16:51.813Z,25.40
2019-04-05T13:19:19.017Z,22.93
2019-04-05T13:21:46.258Z,20.77
2019-04-05T13:24:13.714Z,19.32
2019-04-05T13:26:42.618Z,24.32
2019-04-05T13:29:09.990Z,30.70
2019-04-05T13:31:37.261Z,37.53
2019-04-05T13:34:05.933Z,25.30
2019-04-05T13:36:33.504Z,36.35
2019-04-05T13:39:00.802Z,25.10
2019-04-05T13:41:31.691Z,22.10
2019-04-05T13:44:01.342Z,30.60
2019-04-05T13:46:27.638Z,26.62
2019-04-05T13:48:54.870Z,31.62
2019-04-05T13:51:27.702Z,20.20
2019-04-05T13:53:51.207Z,23.92
2019-04-05T13:56:18.428Z,24.18
2019-04-05T13:58:46.912Z,30.30
2019-04-05T14:01:14.649Z,28.15
2019-04-05T14:03:42.866Z,23.45
2019-04-05T14:06:10.758Z,22.48
2019-04-05T14:08:41.002Z,21.42
2019-04-05T14:11:08.394Z,24.18
2019-04-05T14:13:37.759Z,22.77
2019-04-05T14:16:06.294Z,27.98
2019-04-05T14:18:33.567Z,23.95
2019-04-05T14:21:00.890Z,37.05
2019-04-05T14:23:28.167Z,26.90
2019-04-05T14:25:55.395Z,27.87
2019-04-05T14:28:22.615Z,25.80
2019-04-05T14:30:49.922Z,35.83
2019-04-05T14:33:17.158Z,22.15
2019-04-05T14:35:44.373Z,28.35
2019-04-05T14:38:11.942Z,30.20
2019-04-05T14:40:39.613Z,33.67
2019-04-05T14:43:07.364Z,25.12
2019-04-05T14:45:34.648Z,23.40
2019-04-05T14:48:01.875Z,27.30
2019-04-05T14:50:29.123Z,25.30
2019-04-05T14:52:56.399Z,22.48
2019-04-05T14:55:23.621Z,24.12
2019-04-05T14:57:50.853Z,24.10
2019-04-05T15:00:18.151Z,21.05
2019-04-05T15:02:45.370Z,21.82
2019-04-05T15:05:12.597Z,23.27
2019-04-05T15:07:39.871Z,27.20
2019-04-05T15:10:07.142Z,23.10
2019-04-05T15:12:34.685Z,23.90
2019-04-05T15:15:01.985Z,18.20
2019-04-05T15:17:29.196Z,30.52
2019-04-05T15:19:56.431Z,21.90
2019-04-05T15:22:24.015Z,24.15
2019-04-05T15:24:51.245Z,24.92
2019-04-05T15:27:19.497Z,27.52
2019-04-05T15:29:47.564Z,23.30
2019-04-05T15:32:14.794Z,37.60
2019-04-05T15:34:42.015Z,27.65
2019-04-05T15:37:09.268Z,31.07
2019-04-05T15:39:36.487Z,23.27
2019-04-05T15:42:03.771Z,31.80
2019-04-05T15:44:32.493Z,23.55
2019-04-05T15:47:00.164Z,42.73
2019-04-05T15:49:27.396Z,22.65
2019-04-05T15:51:56.036Z,25.80
2019-04-05T15:54:23.656Z,26.27
2019-04-05T15:56:50.987Z,24.05
2019-04-05T15:59:18.274Z,22.45
2019-04-05T16:01:45.499Z,25.30
2019-04-05T16:04:12.770Z,22.77
2019-04-05T16:06:40.075Z,24.90
2019-04-05T16:09:09.455Z,58.35
2019-04-05T16:11:38.265Z,90.15
2019-04-05T16:14:05.581Z,49.60
2019-04-05T16:16:32.812Z,36.23
2019-04-05T16:19:00.576Z,31.12
2019-04-05T16:21:27.929Z,34.43
2019-04-05T16:23:55.129Z,30.37
2019-04-05T16:26:22.343Z,48.68
2019-04-05T16:28:49.787Z,29.40
2019-04-05T16:31:17.012Z,25.20
2019-04-05T16:33:44.229Z,31.40
2019-04-05T16:36:11.538Z,35.03
2019-04-05T16:38:39.082Z,29.82
2019-04-05T16:41:06.337Z,30.27
2019-04-05T16:43:33.674Z,34.83
2019-04-05T16:46:03.071Z,39.08
2019-04-05T16:48:30.318Z,34.33
2019-04-05T16:50:57.613Z,47.88
2019-04-05T16:53:25.153Z,55.17
2019-04-05T16:55:52.413Z,47.35
2019-04-05T16:58:19.678Z,61.20
2019-04-05T17:00:46.914Z,52.05
2019-04-05T17:03:14.153Z,39.38
2019-04-05T17:05:42.933Z,50.33
2019-04-05T17:08:10.160Z,68.17
2019-04-05T17:10:37.397Z,43.90
2019-04-05T17:13:04.674Z,55.35
2019-04-05T17:15:32.251Z,47.50
2019-04-05T17:18:01.294Z,49.65
2019-04-05T17:20:28.582Z,48.65
2019-04-05T17:22:58.371Z,39.25
2019-04-05T17:25:25.192Z,47.60
2019-04-05T17:27:52.485Z,29.60
2019-04-05T17:30:20.089Z,38.78
2019-04-05T17:32:47.304Z,51.02
2019-04-05T17:35:14.626Z,54.40
2019-04-05T17:37:41.828Z,47.80
2019-04-05T17:40:09.086Z,37.53
2019-04-05T17:42:36.348Z,40.65
2019-04-05T17:45:05.511Z,34.88
2019-04-05T17:47:33.268Z,40.65
2019-04-05T17:50:00.930Z,32.90
2019-04-05T17:52:28.462Z,32.60
2019-04-05T17:54:55.695Z,41.90
2019-04-05T17:57:22.969Z,31.77
2019-04-05T17:59:50.196Z,32.65
2019-04-05T18:02:17.413Z,29.67
2019-04-05T18:04:44.673Z,25.32
2019-04-05T18:07:11.918Z,28.20
2019-04-05T18:09:39.131Z,28.20
2019-04-05T18:12:06.450Z,28.15
2019-04-05T18:14:33.646Z,30.48
2019-04-05T18:17:00.839Z,29.70
2019-04-05T18:19:28.137Z,49.05
2019-04-05T18:21:55.425Z,54.38
2019-04-05T18:24:22.643Z,72.47
2019-04-05T18:26:49.949Z,35.30
2019-04-05T18:29:17.482Z,28.30
2019-04-05T18:31:44.734Z,28.50
2019-04-05T18:34:12.008Z,29.82
2019-04-05T18:36:39.250Z,29.57
2019-04-05T18:39:06.790Z,26.75
2019-04-05T18:41:35.264Z,30.02
2019-04-05T18:44:02.467Z,26.62
2019-04-05T18:46:29.708Z,29.77
2019-04-05T18:48:57.270Z,33.78
2019-04-05T18:51:24.497Z,24.47
2019-04-05T18:53:51.800Z,27.15
2019-04-05T18:56:19.112Z,30.90
2019-04-05T18:58:46.338Z,27.82
2019-04-05T19:01:13.557Z,33.35
2019-04-05T19:03:40.828Z,34.92
2019-04-05T19:06:08.055Z,22.45
2019-04-05T19:08:39.761Z,33.45
2019-04-05T19:11:04.717Z,73.30
2019-04-05T19:13:31.949Z,76.35
2019-04-05T19:15:59.175Z,91.10
2019-04-05T19:18:26.738Z,42.15
2019-04-05T19:20:53.941Z,36.63
2019-04-05T19:23:21.159Z,37.45
2019-04-05T19:25:48.484Z,42.62
2019-04-05T19:28:15.703Z,43.65
2019-04-05T19:48:36.354Z,35.43
2019-04-05T19:50:36.273Z,53.25
2019-04-05T19:53:03.504Z,32.95
2019-04-05T19:55:30.775Z,32.67
2019-04-05T19:57:58.038Z,39.42
2019-04-05T20:00:25.726Z,45.35
2019-04-05T20:02:52.993Z,51.25
2019-04-05T20:05:20.537Z,37.65
2019-04-05T20:07:47.770Z,30.20
2019-04-05T20:10:15.039Z,35.55
2019-04-05T20:12:42.335Z,24.67
2019-04-05T20:15:09.533Z,30.37
2019-04-05T20:17:36.816Z,44.77
2019-04-05T20:20:04.916Z,25.05
2019-04-05T20:22:32.163Z,33.15
2019-04-05T20:24:59.764Z,27.85
2019-04-05T20:27:26.974Z,25.77
2019-04-05T20:29:54.341Z,40.00
2019-04-05T20:32:21.621Z,29.57
2019-04-05T20:34:48.849Z,28.83
2019-04-05T20:37:16.564Z,27.10
2019-04-05T20:39:43.830Z,30.82
2019-04-05T20:42:11.466Z,44.80
2019-04-05T20:44:38.768Z,32.28
2019-04-05T20:47:06.084Z,27.77
2019-04-05T20:49:33.322Z,29.72
2019-04-05T20:52:01.219Z,28.47
2019-04-05T20:54:28.510Z,30.23
2019-04-05T20:56:55.738Z,34.18
2019-04-05T20:59:22.990Z,30.80
2019-04-05T21:01:50.319Z,39.13
2019-04-05T21:04:17.545Z,30.52
2019-04-05T21:06:44.759Z,34.00
2019-04-05T21:09:12.054Z,34.85
2019-04-05T21:11:39.915Z,32.00
2019-04-05T21:14:07.165Z,34.08
2019-04-05T21:16:34.452Z,34.25
2019-04-05T21:19:01.651Z,40.05
2019-04-05T21:21:29.185Z,26.12
2019-04-05T21:23:56.443Z,38.50
2019-04-05T21:26:23.661Z,30.60
2019-04-05T21:28:50.869Z,36.00
2019-04-05T21:31:18.139Z,28.80
2019-04-05T21:33:45.718Z,33.65
2019-04-05T21:36:13.255Z,29.35
2019-04-05T21:38:40.507Z,30.57
2019-04-05T21:41:07.760Z,33.02
2019-04-05T21:43:34.974Z,30.82
2019-04-05T21:46:02.251Z,34.98
2019-04-05T21:48:30.650Z,28.80
2019-04-05T21:50:58.095Z,30.25
2019-04-05T21:53:28.111Z,41.70
2019-04-05T21:55:55.395Z,32.55
2019-04-05T21:58:22.603Z,36.60
2019-04-05T22:00:51.682Z,27.15
2019-04-05T22:03:20.019Z,32.30
2019-04-05T22:05:47.327Z,35.73
2019-04-05T22:08:15.092Z,30.68
2019-04-05T22:10:42.398Z,31.65
2019-04-05T22:13:09.685Z,26.42
2019-04-05T22:15:37.033Z,30.20
2019-04-05T22:18:04.260Z,27.17
2019-04-05T22:20:31.481Z,28.62
2019-04-05T22:22:58.782Z,29.85
2019-04-05T22:25:26.000Z,28.50
2019-04-05T22:27:53.236Z,28.07
2019-04-05T22:30:20.578Z,29.07
2019-04-05T22:32:47.807Z,30.90
2019-04-05T22:35:15.343Z,29.25
2019-04-05T22:37:43.541Z,32.40
2019-04-05T22:40:10.802Z,28.40
2019-04-05T22:42:37.973Z,30.62
2019-04-05T22:45:05.749Z,31.48
2019-04-05T22:47:33.362Z,30.17
2019-04-05T22:50:00.565Z,27.93
2019-04-05T22:52:27.836Z,27.32
2019-04-05T22:54:55.189Z,27.25
2019-04-05T22:57:22.380Z,25.48
2019-04-05T22:59:49.669Z,31.00
2019-04-05T23:02:16.893Z,31.62
2019-04-05T23:04:44.083Z,35.43
2019-04-05T23:07:11.342Z,36.50
2019-04-05T23:09:38.649Z,33.78
2019-04-05T23:12:06.280Z,33.25
2019-04-05T23:14:33.561Z,34.60
2019-04-05T23:17:00.772Z,27.35
2019-04-05T23:19:27.991Z,31.70
2019-04-05T23:21:55.262Z,36.25
2019-04-05T23:24:22.467Z,32.85
2019-04-05T23:26:49.708Z,31.68
2019-04-05T23:29:16.995Z,35.20
2019-04-05T23:31:44.195Z,33.90
2019-04-05T23:34:11.429Z,30.92
2019-04-05T23:36:38.696Z,36.48
2019-04-05T23:39:05.996Z,28.35
2019-04-05T23:41:33.344Z,30.48
2019-04-05T23:44:00.603Z,35.85
2019-04-05T23:46:28.204Z,29.15
2019-04-05T23:48:55.451Z,36.23
2019-04-05T23:51:22.714Z,30.00
2019-04-05T23:53:49.931Z,30.40
2019-04-05T23:56:18.606Z,24.95
2019-04-05T23:58:45.886Z,29.60
